createdAt,value
2022-12-11T00:01:21.199Z,97384.88
2022-12-11T00:03:49.247Z,97377.53
2022-12-11T00:06:19.825Z,97386.19
2022-12-11T00:08:47.677Z,97385.16
2022-12-11T00:11:17.341Z,97384.09
2022-12-11T00:13:44.565Z,97377.94
2022-12-11T00:16:12.304Z,97375.28
2022-12-11T00:18:40.239Z,97375.28
2022-12-11T00:21:11.243Z,97379.66
2022-12-11T00:23:39.005Z,97385.88
2022-12-11T00:26:09.522Z,97378.06
2022-12-11T00:28:36.810Z,97381.19
2022-12-11T00:31:08.876Z,97380.25
2022-12-11T00:33:36.101Z,97385.22
2022-12-11T00:36:04.028Z,97371.94
2022-12-11T00:38:31.146Z,97372.75
2022-12-11T00:41:01.599Z,97374.88
2022-12-11T00:43:28.763Z,97356.22
2022-12-11T00:45:55.956Z,97371.81
2022-12-11T00:48:23.346Z,97363.16
2022-12-11T00:50:50.534Z,97362.56
2022-12-11T00:53:17.695Z,97360.91
2022-12-11T00:55:44.866Z,97360.19
2022-12-11T00:58:13.088Z,97369.38
2022-12-11T01:00:41.231Z,97370.09
2022-12-11T01:03:10.294Z,97368.13
2022-12-11T01:05:37.781Z,97370.00
2022-12-11T01:08:05.296Z,97364.59
2022-12-11T01:10:33.545Z,97367.63
2022-12-11T01:13:09.158Z,97372.53
2022-12-11T01:15:45.161Z,97364.38
2022-12-11T01:18:15.677Z,97363.28
2022-12-11T01:20:43.792Z,97354.84
2022-12-11T01:23:13.610Z,97363.53
2022-12-11T01:25:42.188Z,97364.59
2022-12-11T01:28:10.215Z,97375.16
2022-12-11T01:30:37.698Z,97372.47
2022-12-11T01:33:05.016Z,97360.47
2022-12-11T01:35:33.532Z,97365.53
2022-12-11T01:38:01.741Z,97369.66
2022-12-11T01:40:29.817Z,97366.53
2022-12-11T01:42:57.034Z,97368.50
2022-12-11T01:45:27.282Z,97366.38
2022-12-11T01:48:02.601Z,97361.22
2022-12-11T01:50:31.654Z,97358.53
2022-12-11T01:52:59.485Z,97358.53
2022-12-11T01:55:26.974Z,97353.47
2022-12-11T01:57:55.121Z,97348.53
2022-12-11T02:00:22.758Z,97342.78
2022-12-11T02:02:50.066Z,97342.22
2022-12-11T02:05:17.444Z,97349.28
2022-12-11T02:07:53.214Z,97358.41
2022-12-11T02:10:20.458Z,97346.47
2022-12-11T02:13:14.094Z,97337.78
2022-12-11T02:16:07.320Z,97332.03
2022-12-11T02:18:46.969Z,97337.53
2022-12-11T02:21:27.013Z,97342.94
2022-12-11T02:24:02.841Z,97343.66
2022-12-11T02:27:05.896Z,97348.22
2022-12-11T02:29:40.055Z,97341.78
2022-12-11T02:32:45.618Z,97343.88
2022-12-11T02:35:44.764Z,97346.84
2022-12-11T02:38:31.028Z,97360.34
2022-12-11T02:40:59.550Z,97342.25
2022-12-11T02:43:28.748Z,97345.19
2022-12-11T02:45:57.454Z,97335.22
2022-12-11T02:48:25.588Z,97342.00
2022-12-11T02:50:58.470Z,97352.31
2022-12-11T02:53:31.069Z,97349.88
2022-12-11T02:56:13.538Z,97340.34
2022-12-11T02:58:53.990Z,97347.50
2022-12-11T03:01:26.523Z,97346.19
2022-12-11T03:03:55.221Z,97346.91
2022-12-11T03:06:32.492Z,97339.31
2022-12-11T03:08:59.827Z,97337.19
2022-12-11T03:11:27.056Z,97339.31
2022-12-11T03:13:55.422Z,97338.75
2022-12-11T03:16:55.291Z,97333.34
2022-12-11T03:19:38.768Z,97339.91
2022-12-11T03:22:31.807Z,97329.94
2022-12-11T03:25:10.036Z,97337.53
2022-12-11T03:28:06.897Z,97334.25
2022-12-11T03:30:37.660Z,97333.53
2022-12-11T03:33:16.083Z,97330.59
2022-12-11T03:35:48.811Z,97330.38
2022-12-11T03:38:25.933Z,97324.97
2022-12-11T03:40:58.296Z,97316.88
2022-12-11T03:43:27.244Z,97316.88
2022-12-11T03:45:55.482Z,97323.44
2022-12-11T03:48:27.954Z,97311.25
2022-12-11T03:50:56.127Z,97321.34
2022-12-11T03:53:25.030Z,97320.50
2022-12-11T03:55:52.560Z,97315.28
2022-12-11T03:58:19.718Z,97318.31
2022-12-11T04:00:46.932Z,97314.88
2022-12-11T04:03:14.725Z,97313.25
2022-12-11T04:05:54.328Z,97317.91
2022-12-11T04:08:23.386Z,97313.56
2022-12-11T04:11:14.410Z,97312.25
2022-12-11T04:13:42.623Z,97308.50
2022-12-11T04:16:10.057Z,97309.00
2022-12-11T04:18:55.861Z,97299.75
2022-12-11T04:21:41.447Z,97312.25
2022-12-11T04:24:15.344Z,97314.63
2022-12-11T04:26:45.196Z,97307.84
2022-12-11T04:29:13.052Z,97309.38
2022-12-11T04:31:40.287Z,97309.59
2022-12-11T04:34:07.493Z,97316.31
2022-12-11T04:36:34.688Z,97307.16
2022-12-11T04:39:01.880Z,97318.03
2022-12-11T04:41:29.559Z,97319.69
2022-12-11T04:43:56.777Z,97315.69
2022-12-11T04:46:25.539Z,97322.50
2022-12-11T04:48:57.679Z,97331.16
2022-12-11T04:51:26.218Z,97326.59
2022-12-11T04:53:53.597Z,97319.19
2022-12-11T04:56:21.612Z,97327.91
2022-12-11T04:58:48.907Z,97327.91
2022-12-11T05:01:22.890Z,97329.19
2022-12-11T05:03:50.785Z,97313.47
2022-12-11T05:06:18.188Z,97318.38
2022-12-11T05:08:45.739Z,97332.69
2022-12-11T05:11:15.850Z,97335.19
2022-12-11T05:13:43.862Z,97340.56
2022-12-11T05:16:15.896Z,97345.16
2022-12-11T05:18:43.610Z,97347.28
2022-12-11T05:21:14.291Z,97350.31
2022-12-11T05:23:42.380Z,97353.25
2022-12-11T05:26:15.355Z,97342.59
2022-12-11T05:28:43.149Z,97345.38
2022-12-11T05:31:14.724Z,97355.72
2022-12-11T05:33:42.272Z,97345.75
2022-12-11T05:36:17.227Z,97355.94
2022-12-11T05:38:44.902Z,97359.47
2022-12-11T05:41:16.435Z,97351.88
2022-12-11T05:43:43.922Z,97358.41
2022-12-11T05:46:17.887Z,97356.53
2022-12-11T05:48:49.301Z,97354.41
2022-12-11T05:51:17.408Z,97352.31
2022-12-11T05:53:46.358Z,97344.44
2022-12-11T05:56:23.679Z,97343.88
2022-12-11T05:58:51.090Z,97364.38
2022-12-11T06:01:24.077Z,97370.28
2022-12-11T06:03:51.442Z,97355.72
2022-12-11T06:06:18.903Z,97374.38
2022-12-11T06:08:46.271Z,97375.44
2022-12-11T06:11:15.678Z,97376.38
2022-12-11T06:13:45.688Z,97385.44
2022-12-11T06:16:13.590Z,97392.38
2022-12-11T06:18:44.294Z,97385.09
2022-12-11T06:21:23.916Z,97397.78
2022-12-11T06:23:54.853Z,97404.25
2022-12-11T06:26:22.752Z,97406.72
2022-12-11T06:28:50.426Z,97420.91
2022-12-11T06:31:19.162Z,97412.13
2022-12-11T06:33:46.779Z,97422.94
2022-12-11T06:36:21.467Z,97424.22
2022-12-11T06:38:48.865Z,97420.38
2022-12-11T06:41:16.623Z,97420.25
2022-12-11T06:43:44.483Z,97435.59
2022-12-11T06:46:16.163Z,97426.91
2022-12-11T06:48:44.889Z,97423.75
2022-12-11T06:51:15.846Z,97437.13
2022-12-11T06:53:43.331Z,97431.97
2022-12-11T06:56:14.442Z,97429.88
2022-12-11T06:58:44.156Z,97433.97
2022-12-11T07:01:21.909Z,97441.00
2022-12-11T07:03:49.448Z,97432.56
2022-12-11T07:06:17.163Z,97434.78
2022-12-11T07:08:45.602Z,97425.28
2022-12-11T07:11:15.676Z,97439.69
2022-12-11T07:13:43.656Z,97443.94
2022-12-11T07:16:13.950Z,97453.19
2022-12-11T07:18:51.736Z,97448.88
2022-12-11T07:21:20.930Z,97463.84
2022-12-11T07:23:49.496Z,97461.28
2022-12-11T07:26:20.753Z,97447.69
2022-12-11T07:28:48.968Z,97472.78
2022-12-11T07:31:22.299Z,97478.66
2022-12-11T07:33:55.589Z,97473.38
2022-12-11T07:36:23.984Z,97476.28
2022-12-11T07:38:51.412Z,97477.59
2022-12-11T07:41:19.281Z,97486.88
2022-12-11T07:43:47.140Z,97475.72
2022-12-11T07:46:19.432Z,97478.16
2022-12-11T07:48:48.470Z,97473.47
2022-12-11T07:51:18.481Z,97482.25
2022-12-11T07:53:48.714Z,97484.50
2022-12-11T07:56:17.741Z,97490.00
2022-12-11T07:58:46.179Z,97490.47
2022-12-11T08:04:15.495Z,97495.66
2022-12-11T08:06:43.764Z,97504.31
2022-12-11T08:09:21.049Z,97506.19
2022-12-11T08:11:52.742Z,97510.19
2022-12-11T08:14:21.204Z,97503.50
2022-12-11T08:16:49.067Z,97519.69
2022-12-11T08:19:16.742Z,97516.63
2022-12-11T08:21:44.051Z,97523.19
2022-12-11T08:24:11.595Z,97528.84
2022-12-11T08:26:39.397Z,97529.06
2022-12-11T08:29:06.576Z,97533.50
2022-12-11T08:31:33.921Z,97537.63
2022-12-11T08:34:01.963Z,97539.25
2022-12-11T08:36:29.145Z,97539.84
2022-12-11T08:38:57.027Z,97533.63
2022-12-11T08:41:30.077Z,97542.34
2022-12-11T08:44:00.389Z,97543.38
2022-12-11T08:46:31.600Z,97543.50
2022-12-11T08:49:00.096Z,97544.91
2022-12-11T08:51:29.416Z,97545.53
2022-12-11T08:53:59.673Z,97553.97
2022-12-11T08:56:28.971Z,97560.06
2022-12-11T08:58:56.773Z,97554.06
2022-12-11T09:01:28.252Z,97557.72
2022-12-11T09:03:57.416Z,97566.84
2022-12-11T09:06:29.134Z,97555.84
2022-12-11T09:09:00.228Z,97560.41
2022-12-11T09:11:42.213Z,97560.97
2022-12-11T09:14:09.638Z,97568.16
2022-12-11T09:16:55.744Z,97573.28
2022-12-11T09:19:25.623Z,97556.75
2022-12-11T09:21:55.031Z,97557.56
2022-12-11T09:24:22.567Z,97560.97
2022-12-11T09:26:51.745Z,97561.22
2022-12-11T09:29:19.055Z,97566.16
2022-12-11T09:31:46.993Z,97572.84
2022-12-11T09:34:14.765Z,97560.53
2022-12-11T09:36:44.430Z,97562.84
2022-12-11T09:39:14.330Z,97569.06
2022-12-11T09:42:17.294Z,97566.59
2022-12-11T09:44:49.840Z,97569.31
2022-12-11T09:47:35.953Z,97560.59
2022-12-11T09:50:23.851Z,97557.00
2022-12-11T09:53:34.049Z,97564.75
2022-12-11T09:56:26.277Z,97564.28
2022-12-11T09:59:11.690Z,97562.84
2022-12-11T10:01:56.892Z,97555.56
2022-12-11T10:04:57.567Z,97556.41
2022-12-11T10:07:36.925Z,97556.41
2022-12-11T10:10:36.491Z,97552.31
2022-12-11T10:13:51.424Z,97545.59
2022-12-11T10:16:52.654Z,97546.22
2022-12-11T10:19:27.765Z,97544.78
2022-12-11T10:21:56.748Z,97543.16
2022-12-11T10:25:11.045Z,97546.56
2022-12-11T10:27:51.337Z,97548.66
2022-12-11T10:30:35.932Z,97532.72
2022-12-11T10:33:18.749Z,97536.13
2022-12-11T10:35:55.515Z,97545.84
2022-12-11T10:38:31.270Z,97540.53
2022-12-11T10:41:05.824Z,97546.06
2022-12-11T10:43:54.754Z,97529.53
2022-12-11T10:46:29.726Z,97516.28
2022-12-11T10:49:01.164Z,97530.59
2022-12-11T10:51:31.339Z,97542.91
2022-12-11T10:54:07.574Z,97536.00
2022-12-11T10:56:38.163Z,97532.13
2022-12-11T10:59:06.189Z,97542.69
2022-12-11T11:01:33.722Z,97538.56
2022-12-11T11:04:15.702Z,97528.50
2022-12-11T11:06:44.382Z,97523.56
2022-12-11T11:09:33.708Z,97527.91
2022-12-11T11:12:07.398Z,97534.47
2022-12-11T11:14:35.211Z,97543.63
2022-12-11T11:17:02.479Z,97531.44
2022-12-11T11:19:36.097Z,97534.81
2022-12-11T11:22:13.310Z,97544.00
2022-12-11T11:24:56.718Z,97533.28
2022-12-11T11:27:44.715Z,97529.91
2022-12-11T11:30:36.006Z,97531.56
2022-12-11T11:33:25.649Z,97539.66
2022-12-11T11:36:07.022Z,97527.91
2022-12-11T11:38:47.578Z,97514.53
2022-12-11T11:41:25.487Z,97526.50
2022-12-11T11:44:01.104Z,97549.47
2022-12-11T11:46:47.820Z,97543.38
2022-12-11T11:50:01.279Z,97542.34
2022-12-11T11:53:05.111Z,97541.94
2022-12-11T11:56:03.637Z,97532.81
2022-12-11T11:58:52.683Z,97546.91
2022-12-11T12:01:21.317Z,97543.59
2022-12-11T12:03:50.446Z,97553.00
2022-12-11T12:06:50.912Z,97556.66
2022-12-11T12:09:52.569Z,97561.22
2022-12-11T12:12:34.435Z,97561.44
2022-12-11T12:15:29.494Z,97567.06
2022-12-11T12:18:38.246Z,97569.84
2022-12-11T12:21:35.115Z,97565.50
2022-12-11T12:24:24.095Z,97570.31
2022-12-11T12:27:50.040Z,97578.41
2022-12-11T12:30:14.049Z,97572.19
2022-12-11T12:33:18.677Z,97563.28
2022-12-11T12:36:26.875Z,97562.06
2022-12-11T12:39:01.937Z,97552.91
2022-12-11T12:42:07.858Z,97554.66
2022-12-11T12:44:54.195Z,97550.66
2022-12-11T12:47:23.501Z,97554.66
2022-12-11T12:49:53.894Z,97555.59
2022-12-11T12:52:38.269Z,97567.66
2022-12-11T12:55:23.163Z,97571.19
2022-12-11T12:57:57.947Z,97576.13
2022-12-11T13:00:36.722Z,97574.34
2022-12-11T13:03:20.396Z,97572.75
2022-12-11T13:06:08.175Z,97582.94
2022-12-11T13:08:48.009Z,97585.31
2022-12-11T13:11:19.950Z,97588.38
2022-12-11T13:14:04.191Z,97577.59
2022-12-11T13:16:43.149Z,97592.47
2022-12-11T13:19:26.341Z,97586.03
2022-12-11T13:22:17.690Z,97589.41
2022-12-11T13:25:01.243Z,97600.22
2022-12-11T13:28:26.058Z,97584.94
2022-12-11T13:31:06.977Z,97586.91
2022-12-11T13:33:51.748Z,97598.16
2022-12-11T13:36:29.572Z,97575.75
2022-12-11T13:39:05.471Z,97594.06
2022-12-11T13:41:37.517Z,97591.78
2022-12-11T13:44:07.204Z,97596.34
2022-12-11T13:46:38.136Z,97593.09
2022-12-11T13:49:24.875Z,97595.31
2022-12-11T13:51:58.372Z,97611.63
2022-12-11T13:54:27.797Z,97600.13
2022-12-11T13:57:22.228Z,97612.22
2022-12-11T13:59:58.237Z,97611.63
2022-12-11T14:02:42.719Z,97602.16
2022-12-11T14:08:01.234Z,97600.56
2022-12-11T14:10:37.958Z,97603.50
2022-12-11T14:13:25.306Z,97610.25
2022-12-11T14:21:30.120Z,97637.41
2022-12-11T14:24:00.841Z,97638.44
2022-12-11T14:26:31.951Z,97649.69
2022-12-11T14:29:00.123Z,97663.16
2022-12-11T14:31:45.571Z,97669.47
2022-12-11T14:34:21.282Z,97669.31
2022-12-11T14:36:50.304Z,97672.84
2022-12-11T14:39:33.940Z,97670.50
2022-12-11T14:42:11.057Z,97680.84
2022-12-11T14:45:07.272Z,97689.53
2022-12-11T14:47:45.053Z,97692.66
2022-12-11T14:50:39.429Z,97690.03
2022-12-11T14:53:37.452Z,97685.69
2022-12-11T14:56:08.842Z,97687.56
2022-12-11T14:59:06.753Z,97689.06
2022-12-11T15:01:37.502Z,97696.09
2022-12-11T15:04:15.380Z,97703.19
2022-12-11T15:06:51.177Z,97706.81
2022-12-11T15:12:26.273Z,97707.53
2022-12-11T15:14:58.893Z,97719.22
2022-12-11T15:17:29.625Z,97707.88
2022-12-11T15:20:14.450Z,97715.03
2022-12-11T15:22:45.640Z,97705.19
2022-12-11T15:25:28.774Z,97710.31
2022-12-11T16:05:57.014Z,97733.63
2022-12-11T16:08:35.321Z,97722.91
2022-12-11T16:25:01.451Z,97735.50
2022-12-11T16:27:29.047Z,97732.19
2022-12-11T16:30:03.535Z,97730.31
2022-12-11T16:32:40.477Z,97733.94
2022-12-11T16:35:08.915Z,97730.16
2022-12-11T16:37:39.994Z,97725.00
2022-12-11T16:40:09.418Z,97730.97
2022-12-11T16:42:40.752Z,97735.13
2022-12-11T16:45:14.726Z,97734.34
2022-12-11T16:47:43.288Z,97728.75
2022-12-11T16:50:12.995Z,97727.25
2022-12-11T16:52:40.631Z,97729.28
2022-12-11T16:55:09.704Z,97737.28
2022-12-11T16:57:37.971Z,97722.63
2022-12-11T17:00:08.354Z,97737.09
2022-12-11T17:02:36.941Z,97731.97
2022-12-11T17:05:04.672Z,97734.22
2022-12-11T17:07:33.474Z,97741.47
2022-12-11T17:10:02.894Z,97737.53
2022-12-11T17:12:31.680Z,97734.88
2022-12-11T17:14:59.065Z,97732.91
2022-12-11T17:17:26.488Z,97740.06
2022-12-11T17:19:54.015Z,97737.53
2022-12-11T17:22:21.476Z,97736.47
2022-12-11T17:24:58.101Z,97737.09
2022-12-11T17:27:25.896Z,97734.38
2022-12-11T17:29:54.389Z,97728.34
2022-12-11T17:32:21.747Z,97730.59
2022-12-11T17:34:50.506Z,97731.50
2022-12-11T17:37:19.298Z,97735.22
2022-12-11T17:39:47.657Z,97733.34
2022-12-11T17:42:14.916Z,97741.72
2022-12-11T17:44:42.237Z,97739.03
2022-12-11T17:47:12.025Z,97737.09
2022-12-11T17:49:42.349Z,97733.63
2022-12-11T17:52:09.931Z,97734.72
2022-12-11T17:54:39.327Z,97738.22
2022-12-11T17:57:06.955Z,97734.06
2022-12-11T17:59:35.784Z,97739.81
2022-12-11T18:02:03.198Z,97739.03
2022-12-11T18:04:30.724Z,97747.09
2022-12-11T18:06:58.327Z,97743.84
2022-12-11T18:09:25.653Z,97754.50
2022-12-11T18:11:53.244Z,97741.28
2022-12-11T18:14:20.760Z,97753.91
2022-12-11T18:16:48.497Z,97760.28
2022-12-11T18:19:16.941Z,97759.47
2022-12-11T18:21:46.576Z,97768.00
2022-12-11T18:24:14.293Z,97766.34
2022-12-11T18:26:44.416Z,97756.25
2022-12-11T18:29:12.280Z,97759.59
2022-12-11T18:31:42.690Z,97749.63
2022-12-11T18:34:11.005Z,97758.47
2022-12-11T18:36:38.320Z,97754.34
2022-12-11T18:39:05.889Z,97764.41
2022-12-11T18:41:33.149Z,97760.13
2022-12-11T18:44:08.011Z,97760.28
2022-12-11T18:46:37.161Z,97765.88
2022-12-11T18:49:04.484Z,97747.97
2022-12-11T18:51:31.871Z,97759.59
2022-12-11T18:53:59.527Z,97764.38
2022-12-11T18:56:27.167Z,97757.97
2022-12-11T18:58:55.341Z,97767.72
2022-12-11T19:01:29.672Z,97773.47
2022-12-11T19:04:03.572Z,97772.84
2022-12-11T19:06:35.692Z,97775.50
2022-12-11T19:09:06.173Z,97773.34
2022-12-11T19:11:35.697Z,97774.56
2022-12-11T19:14:04.765Z,97766.13
2022-12-11T19:16:36.613Z,97769.81
2022-12-11T19:19:10.244Z,97762.28
2022-12-11T19:21:38.612Z,97757.06
2022-12-11T19:24:09.404Z,97758.91
2022-12-11T19:26:37.227Z,97761.03
2022-12-11T19:29:06.159Z,97759.75
2022-12-11T19:31:35.623Z,97765.31
2022-12-11T19:34:05.156Z,97775.31
2022-12-11T19:36:38.742Z,97774.66
2022-12-11T19:39:15.464Z,97779.81
2022-12-11T19:45:08.233Z,97762.53
2022-12-11T19:47:50.269Z,97785.84
2022-12-11T19:50:47.738Z,97784.81
2022-12-11T19:59:24.038Z,97785.13
2022-12-11T20:01:55.385Z,97792.66
2022-12-11T20:15:54.508Z,97809.81
2022-12-11T20:24:05.309Z,97807.63
2022-12-11T20:26:39.347Z,97811.28
2022-12-11T20:35:14.944Z,97804.38
2022-12-11T20:38:06.206Z,97807.88
2022-12-11T20:40:34.823Z,97803.63
2022-12-11T20:43:05.306Z,97821.91
2022-12-11T20:45:32.729Z,97819.47
2022-12-11T20:48:00.353Z,97824.06
2022-12-11T20:50:27.629Z,97822.34
2022-12-11T20:55:58.999Z,97827.28
2022-12-11T20:58:27.362Z,97825.25
2022-12-11T21:01:07.434Z,97821.91
2022-12-11T22:53:30.441Z,97827.72
2022-12-11T23:02:04.256Z,97826.31
2022-12-11T23:20:43.218Z,97812.28
2022-12-11T23:23:20.387Z,97826.94
2022-12-11T23:43:30.767Z,97827.66
